sensor_id;sensor_type;location;lat;lon;timestamp;P1;durP1;ratioP1;P2;durP2;ratioP2
76373;SDS011;65197;50.164;8.012;2023-11-21T00:01:24;1.23;;;0.80;;
76373;SDS011;65197;50.164;8.012;2023-11-21T00:03:50;0.73;;;0.60;;
76373;SDS011;65197;50.164;8.012;2023-11-21T00:06:15;1.40;;;0.43;;
76373;SDS011;65197;50.164;8.012;2023-11-21T00:08:41;0.52;;;0.45;;
76373;SDS011;65197;50.164;8.012;2023-11-21T00:11:06;0.20;;;0.20;;
76373;SDS011;65197;50.164;8.012;2023-11-21T00:13:32;0.32;;;0.32;;
76373;SDS011;65197;50.164;8.012;2023-11-21T00:15:58;0.17;;;0.15;;
76373;SDS011;65197;50.164;8.012;2023-11-21T00:18:23;0.73;;;0.45;;
76373;SDS011;65197;50.164;8.012;2023-11-21T00:20:49;0.43;;;0.40;;
76373;SDS011;65197;50.164;8.012;2023-11-21T00:23:14;0.60;;;0.60;;
76373;SDS011;65197;50.164;8.012;2023-11-21T00:25:40;1.08;;;0.70;;
76373;SDS011;65197;50.164;8.012;2023-11-21T00:28:05;0.50;;;0.50;;
76373;SDS011;65197;50.164;8.012;2023-11-21T00:30:30;1.90;;;0.75;;
76373;SDS011;65197;50.164;8.012;2023-11-21T00:32:57;5.10;;;0.85;;
76373;SDS011;65197;50.164;8.012;2023-11-21T00:35:22;21.05;;;2.53;;
76373;SDS011;65197;50.164;8.012;2023-11-21T00:37:47;14.38;;;1.67;;
76373;SDS011;65197;50.164;8.012;2023-11-21T00:40:14;4.22;;;1.00;;
76373;SDS011;65197;50.164;8.012;2023-11-21T00:42:40;3.65;;;1.08;;
76373;SDS011;65197;50.164;8.012;2023-11-21T00:45:06;3.92;;;1.42;;
76373;SDS011;65197;50.164;8.012;2023-11-21T00:47:32;1.65;;;1.00;;
76373;SDS011;65197;50.164;8.012;2023-11-21T00:49:57;2.25;;;1.20;;
76373;SDS011;65197;50.164;8.012;2023-11-21T00:52:23;2.95;;;1.52;;
76373;SDS011;65197;50.164;8.012;2023-11-21T00:54:48;4.25;;;1.73;;
76373;SDS011;65197;50.164;8.012;2023-11-21T00:57:14;2.63;;;1.55;;
76373;SDS011;65197;50.164;8.012;2023-11-21T00:59:40;3.13;;;1.40;;
76373;SDS011;65197;50.164;8.012;2023-11-21T01:02:05;4.35;;;1.02;;
76373;SDS011;65197;50.164;8.012;2023-11-21T01:04:31;6.63;;;1.15;;
76373;SDS011;65197;50.164;8.012;2023-11-21T01:06:59;4.47;;;0.68;;
76373;SDS011;65197;50.164;8.012;2023-11-21T01:09:24;4.00;;;0.95;;
76373;SDS011;65197;50.164;8.012;2023-11-21T01:11:50;0.80;;;0.30;;
76373;SDS011;65197;50.164;8.012;2023-11-21T01:14:16;0.77;;;0.40;;
76373;SDS011;65197;50.164;8.012;2023-11-21T01:16:42;1.63;;;0.40;;
76373;SDS011;65197;50.164;8.012;2023-11-21T01:19:08;0.75;;;0.60;;
76373;SDS011;65197;50.164;8.012;2023-11-21T01:21:34;5.40;;;1.02;;
76373;SDS011;65197;50.164;8.012;2023-11-21T01:23:59;11.25;;;1.67;;
76373;SDS011;65197;50.164;8.012;2023-11-21T01:26:25;14.02;;;1.85;;
76373;SDS011;65197;50.164;8.012;2023-11-21T01:28:50;61.25;;;3.78;;
76373;SDS011;65197;50.164;8.012;2023-11-21T01:31:15;33.10;;;3.53;;
76373;SDS011;65197;50.164;8.012;2023-11-21T01:33:41;44.38;;;3.30;;
76373;SDS011;65197;50.164;8.012;2023-11-21T01:36:06;34.33;;;2.70;;
76373;SDS011;65197;50.164;8.012;2023-11-21T01:38:32;61.40;;;4.28;;
76373;SDS011;65197;50.164;8.012;2023-11-21T01:40:57;139.52;;;9.38;;
76373;SDS011;65197;50.164;8.012;2023-11-21T01:43:25;99.55;;;7.03;;
76373;SDS011;65197;50.164;8.012;2023-11-21T01:45:51;124.00;;;9.75;;
76373;SDS011;65197;50.164;8.012;2023-11-21T01:48:17;116.20;;;9.73;;
76373;SDS011;65197;50.164;8.012;2023-11-21T01:50:42;98.50;;;11.55;;
76373;SDS011;65197;50.164;8.012;2023-11-21T01:53:08;126.15;;;9.45;;
76373;SDS011;65197;50.164;8.012;2023-11-21T01:55:34;184.68;;;16.85;;
76373;SDS011;65197;50.164;8.012;2023-11-21T01:57:59;83.65;;;7.22;;
76373;SDS011;65197;50.164;8.012;2023-11-21T02:00:25;97.55;;;11.57;;
76373;SDS011;65197;50.164;8.012;2023-11-21T02:02:53;119.82;;;9.43;;
76373;SDS011;65197;50.164;8.012;2023-11-21T02:05:18;35.83;;;3.70;;
76373;SDS011;65197;50.164;8.012;2023-11-21T02:07:46;99.97;;;9.52;;
76373;SDS011;65197;50.164;8.012;2023-11-21T02:10:17;42.55;;;4.70;;
76373;SDS011;65197;50.164;8.012;2023-11-21T02:12:47;66.82;;;6.57;;
76373;SDS011;65197;50.164;8.012;2023-11-21T02:15:13;47.15;;;4.18;;
76373;SDS011;65197;50.164;8.012;2023-11-21T02:17:45;31.55;;;3.50;;
76373;SDS011;65197;50.164;8.012;2023-11-21T02:20:12;42.25;;;4.55;;
76373;SDS011;65197;50.164;8.012;2023-11-21T02:22:42;69.45;;;7.53;;
76373;SDS011;65197;50.164;8.012;2023-11-21T02:25:09;56.83;;;5.68;;
76373;SDS011;65197;50.164;8.012;2023-11-21T02:27:34;54.67;;;6.00;;
76373;SDS011;65197;50.164;8.012;2023-11-21T02:30:00;43.88;;;3.75;;
76373;SDS011;65197;50.164;8.012;2023-11-21T02:32:26;32.22;;;3.70;;
76373;SDS011;65197;50.164;8.012;2023-11-21T02:34:51;115.80;;;7.95;;
76373;SDS011;65197;50.164;8.012;2023-11-21T02:40:13;95.07;;;6.55;;
76373;SDS011;65197;50.164;8.012;2023-11-21T02:42:42;71.57;;;6.65;;
76373;SDS011;65197;50.164;8.012;2023-11-21T02:45:10;119.80;;;10.10;;
76373;SDS011;65197;50.164;8.012;2023-11-21T02:47:38;108.63;;;9.70;;
76373;SDS011;65197;50.164;8.012;2023-11-21T02:50:04;88.00;;;7.15;;
76373;SDS011;65197;50.164;8.012;2023-11-21T02:52:31;92.07;;;7.50;;
76373;SDS011;65197;50.164;8.012;2023-11-21T02:54:58;92.28;;;7.97;;
76373;SDS011;65197;50.164;8.012;2023-11-21T02:57:23;95.40;;;6.97;;
76373;SDS011;65197;50.164;8.012;2023-11-21T02:59:49;134.25;;;11.48;;
76373;SDS011;65197;50.164;8.012;2023-11-21T03:02:15;103.97;;;9.07;;
76373;SDS011;65197;50.164;8.012;2023-11-21T03:04:40;178.38;;;12.50;;
76373;SDS011;65197;50.164;8.012;2023-11-21T03:07:07;128.73;;;11.30;;
76373;SDS011;65197;50.164;8.012;2023-11-21T03:09:33;88.00;;;8.57;;
76373;SDS011;65197;50.164;8.012;2023-11-21T03:11:59;111.45;;;8.73;;
76373;SDS011;65197;50.164;8.012;2023-11-21T03:14:24;73.22;;;6.57;;
76373;SDS011;65197;50.164;8.012;2023-11-21T03:16:49;189.07;;;12.68;;
76373;SDS011;65197;50.164;8.012;2023-11-21T03:19:15;109.45;;;11.02;;
76373;SDS011;65197;50.164;8.012;2023-11-21T03:21:40;125.97;;;13.85;;
76373;SDS011;65197;50.164;8.012;2023-11-21T03:24:06;100.68;;;10.95;;
76373;SDS011;65197;50.164;8.012;2023-11-21T03:26:32;103.18;;;12.27;;
76373;SDS011;65197;50.164;8.012;2023-11-21T03:28:58;102.00;;;10.27;;
76373;SDS011;65197;50.164;8.012;2023-11-21T03:31:23;126.32;;;13.70;;
76373;SDS011;65197;50.164;8.012;2023-11-21T03:33:48;91.82;;;12.85;;
76373;SDS011;65197;50.164;8.012;2023-11-21T03:36:14;77.35;;;11.60;;
76373;SDS011;65197;50.164;8.012;2023-11-21T03:38:43;169.95;;;18.65;;
76373;SDS011;65197;50.164;8.012;2023-11-21T03:41:08;235.32;;;26.92;;
76373;SDS011;65197;50.164;8.012;2023-11-21T03:43:37;285.90;;;30.23;;
76373;SDS011;65197;50.164;8.012;2023-11-21T03:46:03;221.57;;;20.20;;
76373;SDS011;65197;50.164;8.012;2023-11-21T03:48:28;212.00;;;22.48;;
76373;SDS011;65197;50.164;8.012;2023-11-21T03:50:54;193.43;;;19.85;;
76373;SDS011;65197;50.164;8.012;2023-11-21T03:53:19;148.43;;;17.33;;
76373;SDS011;65197;50.164;8.012;2023-11-21T03:55:45;262.60;;;25.10;;
76373;SDS011;65197;50.164;8.012;2023-11-21T03:58:10;246.18;;;26.50;;
76373;SDS011;65197;50.164;8.012;2023-11-21T04:00:36;190.65;;;22.92;;
76373;SDS011;65197;50.164;8.012;2023-11-21T04:03:01;265.95;;;27.95;;
76373;SDS011;65197;50.164;8.012;2023-11-21T04:05:28;173.43;;;19.73;;
76373;SDS011;65197;50.164;8.012;2023-11-21T04:07:53;148.65;;;18.45;;
76373;SDS011;65197;50.164;8.012;2023-11-21T04:10:19;275.42;;;28.45;;
76373;SDS011;65197;50.164;8.012;2023-11-21T04:12:44;246.60;;;26.80;;
76373;SDS011;65197;50.164;8.012;2023-11-21T04:15:10;268.20;;;25.88;;
76373;SDS011;65197;50.164;8.012;2023-11-21T04:17:37;246.30;;;23.40;;
76373;SDS011;65197;50.164;8.012;2023-11-21T04:20:03;207.73;;;19.02;;
76373;SDS011;65197;50.164;8.012;2023-11-21T04:22:33;302.40;;;25.05;;
76373;SDS011;65197;50.164;8.012;2023-11-21T04:24:59;316.25;;;27.20;;
76373;SDS011;65197;50.164;8.012;2023-11-21T04:27:24;273.17;;;24.98;;
76373;SDS011;65197;50.164;8.012;2023-11-21T04:29:50;241.93;;;20.48;;
76373;SDS011;65197;50.164;8.012;2023-11-21T04:32:15;272.38;;;22.45;;
76373;SDS011;65197;50.164;8.012;2023-11-21T04:34:41;314.13;;;24.00;;
76373;SDS011;65197;50.164;8.012;2023-11-21T04:37:06;205.38;;;16.60;;
76373;SDS011;65197;50.164;8.012;2023-11-21T04:39:31;207.07;;;18.42;;
76373;SDS011;65197;50.164;8.012;2023-11-21T04:41:57;354.38;;;28.38;;
76373;SDS011;65197;50.164;8.012;2023-11-21T04:44:22;319.98;;;28.63;;
76373;SDS011;65197;50.164;8.012;2023-11-21T04:46:48;306.40;;;27.95;;
76373;SDS011;65197;50.164;8.012;2023-11-21T04:49:13;280.08;;;23.35;;
76373;SDS011;65197;50.164;8.012;2023-11-21T04:51:39;204.80;;;17.42;;
76373;SDS011;65197;50.164;8.012;2023-11-21T04:54:04;223.48;;;18.58;;
76373;SDS011;65197;50.164;8.012;2023-11-21T04:56:30;186.38;;;15.43;;
76373;SDS011;65197;50.164;8.012;2023-11-21T04:58:56;242.80;;;21.88;;
76373;SDS011;65197;50.164;8.012;2023-11-21T05:01:21;243.27;;;19.60;;
76373;SDS011;65197;50.164;8.012;2023-11-21T05:03:47;225.73;;;19.98;;
76373;SDS011;65197;50.164;8.012;2023-11-21T05:06:13;187.68;;;19.00;;
76373;SDS011;65197;50.164;8.012;2023-11-21T05:08:39;194.32;;;18.13;;
76373;SDS011;65197;50.164;8.012;2023-11-21T05:11:04;176.70;;;19.02;;
76373;SDS011;65197;50.164;8.012;2023-11-21T05:13:33;183.35;;;15.77;;
76373;SDS011;65197;50.164;8.012;2023-11-21T05:15:59;224.05;;;21.13;;
76373;SDS011;65197;50.164;8.012;2023-11-21T05:18:24;230.05;;;19.45;;
76373;SDS011;65197;50.164;8.012;2023-11-21T05:20:54;197.32;;;17.45;;
76373;SDS011;65197;50.164;8.012;2023-11-21T05:23:20;278.77;;;20.77;;
76373;SDS011;65197;50.164;8.012;2023-11-21T05:25:46;221.88;;;17.70;;
76373;SDS011;65197;50.164;8.012;2023-11-21T05:28:11;225.90;;;19.58;;
76373;SDS011;65197;50.164;8.012;2023-11-21T05:30:37;251.90;;;25.83;;
76373;SDS011;65197;50.164;8.012;2023-11-21T05:33:04;148.82;;;14.85;;
76373;SDS011;65197;50.164;8.012;2023-11-21T05:35:29;214.70;;;22.05;;
76373;SDS011;65197;50.164;8.012;2023-11-21T05:37:55;209.80;;;18.10;;
76373;SDS011;65197;50.164;8.012;2023-11-21T05:40:20;247.20;;;23.15;;
76373;SDS011;65197;50.164;8.012;2023-11-21T05:42:47;217.77;;;20.30;;
76373;SDS011;65197;50.164;8.012;2023-11-21T05:45:13;170.75;;;16.13;;
76373;SDS011;65197;50.164;8.012;2023-11-21T05:47:39;145.18;;;17.02;;
76373;SDS011;65197;50.164;8.012;2023-11-21T05:50:06;240.52;;;21.67;;
76373;SDS011;65197;50.164;8.012;2023-11-21T05:52:39;141.93;;;15.07;;
76373;SDS011;65197;50.164;8.012;2023-11-21T05:55:05;210.85;;;20.00;;
76373;SDS011;65197;50.164;8.012;2023-11-21T05:57:34;180.25;;;18.63;;
76373;SDS011;65197;50.164;8.012;2023-11-21T06:02:45;263.58;;;28.92;;
76373;SDS011;65197;50.164;8.012;2023-11-21T06:05:10;214.15;;;23.60;;
76373;SDS011;65197;50.164;8.012;2023-11-21T06:07:36;116.22;;;14.43;;
76373;SDS011;65197;50.164;8.012;2023-11-21T06:10:03;128.05;;;14.30;;
76373;SDS011;65197;50.164;8.012;2023-11-21T06:12:32;61.42;;;10.30;;
76373;SDS011;65197;50.164;8.012;2023-11-21T06:15:01;113.05;;;14.63;;
76373;SDS011;65197;50.164;8.012;2023-11-21T06:17:29;187.48;;;19.05;;
76373;SDS011;65197;50.164;8.012;2023-11-21T06:19:55;170.00;;;22.90;;
76373;SDS011;65197;50.164;8.012;2023-11-21T06:22:20;156.70;;;18.90;;
76373;SDS011;65197;50.164;8.012;2023-11-21T06:24:46;204.40;;;23.38;;
76373;SDS011;65197;50.164;8.012;2023-11-21T06:27:11;134.30;;;17.38;;
76373;SDS011;65197;50.164;8.012;2023-11-21T06:29:37;120.70;;;13.48;;
76373;SDS011;65197;50.164;8.012;2023-11-21T06:32:03;92.63;;;16.60;;
76373;SDS011;65197;50.164;8.012;2023-11-21T06:34:30;82.40;;;14.75;;
76373;SDS011;65197;50.164;8.012;2023-11-21T06:36:55;39.92;;;8.80;;
76373;SDS011;65197;50.164;8.012;2023-11-21T06:39:21;83.30;;;12.70;;
76373;SDS011;65197;50.164;8.012;2023-11-21T06:41:48;39.20;;;9.65;;
76373;SDS011;65197;50.164;8.012;2023-11-21T06:44:14;65.05;;;11.98;;
76373;SDS011;65197;50.164;8.012;2023-11-21T06:46:40;33.80;;;8.80;;
76373;SDS011;65197;50.164;8.012;2023-11-21T06:49:07;22.88;;;8.05;;
76373;SDS011;65197;50.164;8.012;2023-11-21T06:51:33;21.15;;;8.50;;
76373;SDS011;65197;50.164;8.012;2023-11-21T06:53:58;25.98;;;8.75;;
76373;SDS011;65197;50.164;8.012;2023-11-21T06:56:24;23.60;;;8.98;;
76373;SDS011;65197;50.164;8.012;2023-11-21T06:58:49;23.42;;;8.23;;
76373;SDS011;65197;50.164;8.012;2023-11-21T07:01:18;32.08;;;10.32;;
76373;SDS011;65197;50.164;8.012;2023-11-21T07:03:44;21.80;;;8.60;;
76373;SDS011;65197;50.164;8.012;2023-11-21T07:06:10;18.48;;;7.88;;
76373;SDS011;65197;50.164;8.012;2023-11-21T07:08:36;22.80;;;8.18;;
76373;SDS011;65197;50.164;8.012;2023-11-21T07:11:02;46.28;;;12.90;;
76373;SDS011;65197;50.164;8.012;2023-11-21T07:13:28;26.23;;;8.77;;
76373;SDS011;65197;50.164;8.012;2023-11-21T07:15:53;24.17;;;8.63;;
76373;SDS011;65197;50.164;8.012;2023-11-21T07:18:19;23.90;;;7.93;;
76373;SDS011;65197;50.164;8.012;2023-11-21T07:20:44;22.35;;;9.10;;
76373;SDS011;65197;50.164;8.012;2023-11-21T07:23:10;23.40;;;8.77;;
76373;SDS011;65197;50.164;8.012;2023-11-21T07:25:35;43.20;;;9.63;;
76373;SDS011;65197;50.164;8.012;2023-11-21T07:28:01;39.25;;;8.98;;
76373;SDS011;65197;50.164;8.012;2023-11-21T07:30:26;31.08;;;8.57;;
76373;SDS011;65197;50.164;8.012;2023-11-21T07:32:52;41.90;;;10.23;;
76373;SDS011;65197;50.164;8.012;2023-11-21T07:35:18;22.48;;;7.53;;
76373;SDS011;65197;50.164;8.012;2023-11-21T07:37:43;30.63;;;8.10;;
76373;SDS011;65197;50.164;8.012;2023-11-21T07:40:08;59.70;;;11.88;;
76373;SDS011;65197;50.164;8.012;2023-11-21T07:42:36;54.78;;;10.05;;
76373;SDS011;65197;50.164;8.012;2023-11-21T07:45:02;54.63;;;10.90;;
76373;SDS011;65197;50.164;8.012;2023-11-21T07:47:28;47.88;;;10.07;;
76373;SDS011;65197;50.164;8.012;2023-11-21T07:49:54;55.40;;;11.43;;
76373;SDS011;65197;50.164;8.012;2023-11-21T07:52:21;44.22;;;9.55;;
76373;SDS011;65197;50.164;8.012;2023-11-21T07:54:46;34.28;;;9.85;;
76373;SDS011;65197;50.164;8.012;2023-11-21T07:57:12;102.57;;;17.05;;
76373;SDS011;65197;50.164;8.012;2023-11-21T07:59:38;45.42;;;10.02;;
76373;SDS011;65197;50.164;8.012;2023-11-21T08:02:05;27.67;;;7.95;;
76373;SDS011;65197;50.164;8.012;2023-11-21T08:04:31;39.05;;;10.50;;
76373;SDS011;65197;50.164;8.012;2023-11-21T08:06:57;42.17;;;12.75;;
76373;SDS011;65197;50.164;8.012;2023-11-21T08:09:22;25.35;;;8.25;;
76373;SDS011;65197;50.164;8.012;2023-11-21T08:11:48;31.38;;;8.27;;
76373;SDS011;65197;50.164;8.012;2023-11-21T08:14:14;18.20;;;7.20;;
76373;SDS011;65197;50.164;8.012;2023-11-21T08:16:40;16.55;;;7.93;;
76373;SDS011;65197;50.164;8.012;2023-11-21T08:19:05;16.70;;;6.78;;
76373;SDS011;65197;50.164;8.012;2023-11-21T08:21:31;31.33;;;8.35;;
76373;SDS011;65197;50.164;8.012;2023-11-21T08:23:56;31.13;;;8.88;;
76373;SDS011;65197;50.164;8.012;2023-11-21T08:26:22;20.88;;;7.63;;
76373;SDS011;65197;50.164;8.012;2023-11-21T08:28:48;13.25;;;6.50;;
76373;SDS011;65197;50.164;8.012;2023-11-21T08:31:13;19.58;;;8.00;;
76373;SDS011;65197;50.164;8.012;2023-11-21T08:33:39;29.98;;;7.90;;
76373;SDS011;65197;50.164;8.012;2023-11-21T08:36:08;19.63;;;8.48;;
76373;SDS011;65197;50.164;8.012;2023-11-21T08:38:34;27.77;;;8.88;;
76373;SDS011;65197;50.164;8.012;2023-11-21T08:41:02;23.05;;;8.25;;
76373;SDS011;65197;50.164;8.012;2023-11-21T08:43:34;18.15;;;8.45;;
76373;SDS011;65197;50.164;8.012;2023-11-21T08:46:00;28.02;;;9.23;;
76373;SDS011;65197;50.164;8.012;2023-11-21T08:48:25;24.17;;;8.90;;
76373;SDS011;65197;50.164;8.012;2023-11-21T08:50:53;16.20;;;7.93;;
76373;SDS011;65197;50.164;8.012;2023-11-21T08:53:19;21.05;;;8.63;;
76373;SDS011;65197;50.164;8.012;2023-11-21T08:55:44;20.35;;;7.65;;
76373;SDS011;65197;50.164;8.012;2023-11-21T08:58:10;19.05;;;8.10;;
76373;SDS011;65197;50.164;8.012;2023-11-21T09:00:37;22.35;;;8.60;;
76373;SDS011;65197;50.164;8.012;2023-11-21T09:03:04;18.90;;;8.50;;
76373;SDS011;65197;50.164;8.012;2023-11-21T09:05:33;17.80;;;8.00;;
76373;SDS011;65197;50.164;8.012;2023-11-21T09:07:59;18.35;;;8.15;;
76373;SDS011;65197;50.164;8.012;2023-11-21T09:10:24;17.50;;;8.27;;
76373;SDS011;65197;50.164;8.012;2023-11-21T09:12:50;26.00;;;9.40;;
76373;SDS011;65197;50.164;8.012;2023-11-21T09:15:16;19.98;;;8.82;;
76373;SDS011;65197;50.164;8.012;2023-11-21T09:17:42;20.00;;;8.10;;
76373;SDS011;65197;50.164;8.012;2023-11-21T09:20:08;19.33;;;7.55;;
76373;SDS011;65197;50.164;8.012;2023-11-21T09:22:35;13.73;;;7.40;;
76373;SDS011;65197;50.164;8.012;2023-11-21T09:25:01;20.08;;;8.75;;
76373;SDS011;65197;50.164;8.012;2023-11-21T09:27:30;22.08;;;9.07;;
76373;SDS011;65197;50.164;8.012;2023-11-21T09:29:55;16.42;;;7.80;;
76373;SDS011;65197;50.164;8.012;2023-11-21T09:32:23;17.08;;;7.60;;
76373;SDS011;65197;50.164;8.012;2023-11-21T09:34:49;18.10;;;7.75;;
76373;SDS011;65197;50.164;8.012;2023-11-21T09:37:15;16.40;;;7.25;;
76373;SDS011;65197;50.164;8.012;2023-11-21T09:39:40;9.70;;;6.25;;
76373;SDS011;65197;50.164;8.012;2023-11-21T09:42:14;11.75;;;5.60;;
76373;SDS011;65197;50.164;8.012;2023-11-21T09:47:34;10.02;;;5.72;;
76373;SDS011;65197;50.164;8.012;2023-11-21T09:50:03;9.50;;;5.30;;
76373;SDS011;65197;50.164;8.012;2023-11-21T09:52:33;8.60;;;4.72;;
76373;SDS011;65197;50.164;8.012;2023-11-21T09:55:10;11.10;;;5.22;;
76373;SDS011;65197;50.164;8.012;2023-11-21T09:57:40;8.95;;;4.57;;
76373;SDS011;65197;50.164;8.012;2023-11-21T10:00:07;12.85;;;6.28;;
76373;SDS011;65197;50.164;8.012;2023-11-21T10:02:36;10.13;;;5.45;;
76373;SDS011;65197;50.164;8.012;2023-11-21T10:05:03;9.98;;;5.32;;
76373;SDS011;65197;50.164;8.012;2023-11-21T10:07:29;13.27;;;6.32;;
76373;SDS011;65197;50.164;8.012;2023-11-21T10:09:56;10.85;;;6.55;;
76373;SDS011;65197;50.164;8.012;2023-11-21T10:12:24;13.43;;;7.72;;
76373;SDS011;65197;50.164;8.012;2023-11-21T10:14:51;15.35;;;9.27;;
76373;SDS011;65197;50.164;8.012;2023-11-21T10:17:19;14.23;;;8.20;;
76373;SDS011;65197;50.164;8.012;2023-11-21T10:19:48;16.15;;;8.77;;
76373;SDS011;65197;50.164;8.012;2023-11-21T10:22:14;19.55;;;8.80;;
76373;SDS011;65197;50.164;8.012;2023-11-21T10:24:41;17.80;;;9.40;;
76373;SDS011;65197;50.164;8.012;2023-11-21T10:27:08;12.93;;;7.93;;
76373;SDS011;65197;50.164;8.012;2023-11-21T10:29:34;15.43;;;8.15;;
76373;SDS011;65197;50.164;8.012;2023-11-21T10:32:01;15.85;;;7.18;;
76373;SDS011;65197;50.164;8.012;2023-11-21T10:34:27;13.88;;;7.25;;
76373;SDS011;65197;50.164;8.012;2023-11-21T10:36:52;15.88;;;8.10;;
76373;SDS011;65197;50.164;8.012;2023-11-21T10:39:18;11.98;;;6.90;;
76373;SDS011;65197;50.164;8.012;2023-11-21T10:41:45;11.63;;;7.38;;
76373;SDS011;65197;50.164;8.012;2023-11-21T10:44:13;12.02;;;7.22;;
76373;SDS011;65197;50.164;8.012;2023-11-21T10:46:45;9.73;;;6.47;;
76373;SDS011;65197;50.164;8.012;2023-11-21T10:49:20;15.50;;;7.88;;
76373;SDS011;65197;50.164;8.012;2023-11-21T10:51:46;13.32;;;7.45;;
76373;SDS011;65197;50.164;8.012;2023-11-21T10:54:17;14.63;;;7.32;;
76373;SDS011;65197;50.164;8.012;2023-11-21T10:56:43;10.52;;;6.13;;
76373;SDS011;65197;50.164;8.012;2023-11-21T10:59:10;12.93;;;7.25;;
76373;SDS011;65197;50.164;8.012;2023-11-21T11:01:44;14.00;;;6.50;;
76373;SDS011;65197;50.164;8.012;2023-11-21T11:04:13;16.92;;;7.57;;
76373;SDS011;65197;50.164;8.012;2023-11-21T11:06:44;12.25;;;6.60;;
76373;SDS011;65197;50.164;8.012;2023-11-21T11:09:21;11.88;;;6.25;;
76373;SDS011;65197;50.164;8.012;2023-11-21T11:11:47;12.95;;;6.30;;
76373;SDS011;65197;50.164;8.012;2023-11-21T11:14:14;11.38;;;6.28;;
76373;SDS011;65197;50.164;8.012;2023-11-21T11:16:40;11.73;;;6.53;;
76373;SDS011;65197;50.164;8.012;2023-11-21T11:19:09;10.23;;;6.20;;
76373;SDS011;65197;50.164;8.012;2023-11-21T11:30:40;10.27;;;6.00;;
76373;SDS011;65197;50.164;8.012;2023-11-21T11:36:22;9.43;;;6.00;;
76373;SDS011;65197;50.164;8.012;2023-11-21T11:38:53;11.00;;;5.90;;
76373;SDS011;65197;50.164;8.012;2023-11-21T11:41:28;10.18;;;5.38;;
76373;SDS011;65197;50.164;8.012;2023-11-21T11:44:02;10.23;;;5.60;;
76373;SDS011;65197;50.164;8.012;2023-11-21T11:46:41;9.25;;;5.45;;
76373;SDS011;65197;50.164;8.012;2023-11-21T11:49:07;10.23;;;5.78;;
76373;SDS011;65197;50.164;8.012;2023-11-21T11:51:33;8.85;;;5.75;;
76373;SDS011;65197;50.164;8.012;2023-11-21T11:54:00;10.45;;;6.10;;
76373;SDS011;65197;50.164;8.012;2023-11-21T11:56:30;10.63;;;6.10;;
76373;SDS011;65197;50.164;8.012;2023-11-21T11:59:00;10.07;;;6.50;;
76373;SDS011;65197;50.164;8.012;2023-11-21T12:01:32;13.43;;;6.55;;
76373;SDS011;65197;50.164;8.012;2023-11-21T12:06:39;11.88;;;6.93;;
76373;SDS011;65197;50.164;8.012;2023-11-21T12:09:06;13.32;;;7.35;;
76373;SDS011;65197;50.164;8.012;2023-11-21T12:11:32;11.80;;;6.95;;
76373;SDS011;65197;50.164;8.012;2023-11-21T12:13:58;13.02;;;8.93;;
76373;SDS011;65197;50.164;8.012;2023-11-21T12:16:24;15.10;;;8.60;;
76373;SDS011;65197;50.164;8.012;2023-11-21T12:18:52;16.60;;;8.88;;
76373;SDS011;65197;50.164;8.012;2023-11-21T12:21:18;18.50;;;8.95;;
76373;SDS011;65197;50.164;8.012;2023-11-21T12:23:44;16.88;;;9.27;;
76373;SDS011;65197;50.164;8.012;2023-11-21T12:26:12;18.58;;;9.27;;
76373;SDS011;65197;50.164;8.012;2023-11-21T12:28:38;17.23;;;8.90;;
76373;SDS011;65197;50.164;8.012;2023-11-21T12:31:04;17.30;;;8.85;;
76373;SDS011;65197;50.164;8.012;2023-11-21T12:33:32;16.25;;;8.10;;
76373;SDS011;65197;50.164;8.012;2023-11-21T12:35:58;16.90;;;8.70;;
76373;SDS011;65197;50.164;8.012;2023-11-21T12:38:23;17.45;;;9.07;;
76373;SDS011;65197;50.164;8.012;2023-11-21T12:40:49;17.58;;;9.13;;
76373;SDS011;65197;50.164;8.012;2023-11-21T12:43:15;14.48;;;8.55;;
76373;SDS011;65197;50.164;8.012;2023-11-21T12:45:43;18.73;;;8.93;;
76373;SDS011;65197;50.164;8.012;2023-11-21T12:48:09;16.52;;;8.70;;
76373;SDS011;65197;50.164;8.012;2023-11-21T12:50:36;14.23;;;7.18;;
76373;SDS011;65197;50.164;8.012;2023-11-21T12:53:04;16.00;;;8.40;;
76373;SDS011;65197;50.164;8.012;2023-11-21T12:55:35;15.43;;;7.60;;
76373;SDS011;65197;50.164;8.012;2023-11-21T13:00:35;18.48;;;9.00;;
76373;SDS011;65197;50.164;8.012;2023-11-21T13:03:05;14.43;;;8.68;;
76373;SDS011;65197;50.164;8.012;2023-11-21T13:05:32;15.45;;;9.90;;
76373;SDS011;65197;50.164;8.012;2023-11-21T13:08:01;15.38;;;8.48;;
76373;SDS011;65197;50.164;8.012;2023-11-21T13:10:29;15.57;;;8.35;;
76373;SDS011;65197;50.164;8.012;2023-11-21T13:13:00;14.65;;;7.97;;
76373;SDS011;65197;50.164;8.012;2023-11-21T13:15:30;16.33;;;9.40;;
76373;SDS011;65197;50.164;8.012;2023-11-21T13:18:00;23.83;;;11.80;;
76373;SDS011;65197;50.164;8.012;2023-11-21T13:20:25;21.05;;;9.75;;
76373;SDS011;65197;50.164;8.012;2023-11-21T13:22:52;19.38;;;9.50;;
76373;SDS011;65197;50.164;8.012;2023-11-21T13:25:22;18.92;;;9.48;;
76373;SDS011;65197;50.164;8.012;2023-11-21T13:27:48;17.90;;;10.27;;
76373;SDS011;65197;50.164;8.012;2023-11-21T13:30:14;20.05;;;8.48;;
76373;SDS011;65197;50.164;8.012;2023-11-21T13:32:43;18.60;;;9.63;;
76373;SDS011;65197;50.164;8.012;2023-11-21T13:35:11;22.75;;;10.80;;
76373;SDS011;65197;50.164;8.012;2023-11-21T13:37:46;21.92;;;10.70;;
76373;SDS011;65197;50.164;8.012;2023-11-21T13:40:14;20.45;;;10.05;;
76373;SDS011;65197;50.164;8.012;2023-11-21T13:42:44;23.83;;;11.90;;
76373;SDS011;65197;50.164;8.012;2023-11-21T13:45:10;22.80;;;10.75;;
76373;SDS011;65197;50.164;8.012;2023-11-21T13:47:37;20.40;;;10.88;;
76373;SDS011;65197;50.164;8.012;2023-11-21T13:50:03;21.38;;;11.27;;
76373;SDS011;65197;50.164;8.012;2023-11-21T13:52:31;19.10;;;10.32;;
76373;SDS011;65197;50.164;8.012;2023-11-21T13:54:58;19.77;;;9.25;;
76373;SDS011;65197;50.164;8.012;2023-11-21T13:57:27;16.42;;;9.50;;
76373;SDS011;65197;50.164;8.012;2023-11-21T13:59:53;26.30;;;12.75;;
76373;SDS011;65197;50.164;8.012;2023-11-21T14:02:19;19.73;;;10.20;;
76373;SDS011;65197;50.164;8.012;2023-11-21T14:04:46;20.60;;;10.90;;
76373;SDS011;65197;50.164;8.012;2023-11-21T14:07:19;22.40;;;11.43;;
76373;SDS011;65197;50.164;8.012;2023-11-21T14:10:00;22.05;;;10.88;;
76373;SDS011;65197;50.164;8.012;2023-11-21T14:12:32;17.55;;;8.98;;
76373;SDS011;65197;50.164;8.012;2023-11-21T14:15:01;18.92;;;9.05;;
76373;SDS011;65197;50.164;8.012;2023-11-21T14:17:30;17.23;;;8.85;;
76373;SDS011;65197;50.164;8.012;2023-11-21T14:19:55;19.25;;;9.95;;
76373;SDS011;65197;50.164;8.012;2023-11-21T14:22:21;17.85;;;9.38;;
76373;SDS011;65197;50.164;8.012;2023-11-21T14:24:46;17.63;;;9.52;;
76373;SDS011;65197;50.164;8.012;2023-11-21T14:27:12;20.13;;;10.13;;
76373;SDS011;65197;50.164;8.012;2023-11-21T14:29:39;17.60;;;8.60;;
76373;SDS011;65197;50.164;8.012;2023-11-21T14:32:08;19.00;;;10.13;;
76373;SDS011;65197;50.164;8.012;2023-11-21T14:34:34;22.05;;;10.32;;
76373;SDS011;65197;50.164;8.012;2023-11-21T14:36:59;21.85;;;10.57;;
76373;SDS011;65197;50.164;8.012;2023-11-21T14:39:27;22.38;;;9.80;;
76373;SDS011;65197;50.164;8.012;2023-11-21T14:41:53;21.08;;;10.27;;
76373;SDS011;65197;50.164;8.012;2023-11-21T14:44:24;24.85;;;11.32;;
76373;SDS011;65197;50.164;8.012;2023-11-21T14:46:53;20.10;;;10.45;;
76373;SDS011;65197;50.164;8.012;2023-11-21T14:49:20;29.65;;;12.52;;
76373;SDS011;65197;50.164;8.012;2023-11-21T14:51:49;22.58;;;11.07;;